Time;durP1;ratioP1;P1;durP2;ratioP2;P2;SDS_P1;SDS_P2;PMS_P1;PMS_P2;Temp;Humidity;BMP_temperature;BMP_pressure;BME280_temperature;BME280_humidity;BME280_pressure;Samples;Min_cycle;Max_cycle;Signal;HPM_P1;HPM_P2
2022/12/02 00:00:53;;;;;;;27.83;18.33;;;;;;;;;;5038630;28;20209;-69
2022/12/02 00:03:21;;;;;;;26.50;17.20;;;;;;;;;;5047410;28;20216;-71
2022/12/02 00:05:49;;;;;;;26.83;17.33;;;;;;;;;;5041086;28;20223;-72
2022/12/02 00:08:19;;;;;;;28.17;17.23;;;;;;;;;;5041778;28;20203;-71
2022/12/02 00:10:48;;;;;;;28.50;18.17;;;;;;;;;;5041035;28;20200;-71
2022/12/02 00:13:20;;;;;;;29.80;18.90;;;;;;;;;;5045183;28;20210;-71
2022/12/02 00:15:48;;;;;;;26.97;17.53;;;;;;;;;;5038292;28;20204;-71
2022/12/02 00:18:15;;;;;;;27.53;18.23;;;;;;;;;;5040430;28;20196;-70
2022/12/02 00:20:43;;;;;;;28.50;17.77;;;;;;;;;;5042588;28;20203;-71
2022/12/02 00:23:11;;;;;;;24.87;16.13;;;;;;;;;;5042422;28;20203;-74
2022/12/02 00:25:38;;;;;;;25.77;16.57;;;;;;;;;;5044278;28;20220;-73
2022/12/02 00:28:07;;;;;;;28.37;17.73;;;;;;;;;;5044492;28;20234;-72
2022/12/02 00:30:34;;;;;;;28.27;18.33;;;;;;;;;;5043487;28;20290;-73
2022/12/02 00:33:01;;;;;;;27.63;18.27;;;;;;;;;;5043968;28;20223;-75
2022/12/02 00:35:28;;;;;;;28.87;17.90;;;;;;;;;;5045946;28;20203;-72
2022/12/02 00:37:55;;;;;;;25.47;17.13;;;;;;;;;;5041192;28;20210;-71
2022/12/02 00:40:23;;;;;;;25.87;17.17;;;;;;;;;;5042939;28;20203;-72
2022/12/02 00:42:50;;;;;;;26.07;17.30;;;;;;;;;;5045514;28;20214;-72
2022/12/02 00:48:03;;;;;;;23.67;16.07;;;;;;;;;;5045318;28;20253;-76
2022/12/02 00:50:30;;;;;;;27.90;17.03;;;;;;;;;;5041222;28;20207;-74
2022/12/02 00:52:58;;;;;;;24.83;16.20;;;;;;;;;;5033086;28;20219;-76
2022/12/02 00:55:25;;;;;;;27.03;15.63;;;;;;;;;;5046570;28;20200;-75
2022/12/02 00:57:52;;;;;;;23.13;16.07;;;;;;;;;;5045113;28;20213;-76
2022/12/02 01:00:21;;;;;;;23.37;15.27;;;;;;;;;;5050424;28;20203;-72
2022/12/02 01:02:48;;;;;;;23.40;15.47;;;;;;;;;;5047504;28;20196;-75
2022/12/02 01:05:15;;;;;;;23.87;15.73;;;;;;;;;;5045359;28;20215;-75
2022/12/02 01:07:43;;;;;;;23.93;15.80;;;;;;;;;;5045967;28;20199;-75
2022/12/02 01:10:10;;;;;;;22.00;15.37;;;;;;;;;;5048023;28;20211;-71
2022/12/02 01:12:37;;;;;;;23.83;16.63;;;;;;;;;;5049672;28;20235;-72
2022/12/02 01:15:05;;;;;;;28.43;17.57;;;;;;;;;;5049096;28;20200;-72
2022/12/02 01:17:33;;;;;;;22.73;15.43;;;;;;;;;;5050416;28;20200;-75
2022/12/02 01:20:00;;;;;;;24.17;16.20;;;;;;;;;;5049623;28;20282;-72
2022/12/02 01:22:28;;;;;;;22.57;15.07;;;;;;;;;;5051954;28;20203;-72
2022/12/02 01:24:55;;;;;;;25.30;16.37;;;;;;;;;;5046519;28;20195;-73
2022/12/02 01:27:23;;;;;;;26.20;15.90;;;;;;;;;;5050839;28;20230;-71
2022/12/02 01:29:50;;;;;;;23.60;15.53;;;;;;;;;;5051431;28;20253;-74
2022/12/02 01:32:18;;;;;;;23.90;15.33;;;;;;;;;;5048874;28;20514;-73
2022/12/02 01:34:47;;;;;;;23.23;15.73;;;;;;;;;;5051148;28;20199;-75
2022/12/02 01:37:14;;;;;;;25.87;15.07;;;;;;;;;;5047286;28;20226;-73
2022/12/02 01:39:41;;;;;;;22.03;15.53;;;;;;;;;;5050886;28;20208;-76
2022/12/02 01:42:08;;;;;;;23.67;16.57;;;;;;;;;;5045652;28;20196;-72
2022/12/02 01:44:36;;;;;;;24.73;16.03;;;;;;;;;;5052182;28;20249;-73
2022/12/02 01:47:03;;;;;;;22.20;15.03;;;;;;;;;;5047737;28;20221;-74
2022/12/02 01:49:30;;;;;;;23.90;15.40;;;;;;;;;;5050152;28;20209;-74
2022/12/02 01:51:59;;;;;;;27.17;16.80;;;;;;;;;;5053005;28;20219;-73
2022/12/02 01:54:26;;;;;;;19.87;14.47;;;;;;;;;;5050269;28;20222;-74
2022/12/02 01:56:53;;;;;;;24.17;14.97;;;;;;;;;;5047782;28;20202;-73
2022/12/02 01:59:22;;;;;;;22.07;14.47;;;;;;;;;;5046378;28;20237;-73
2022/12/02 02:01:49;;;;;;;19.03;13.60;;;;;;;;;;5047849;28;20200;-73
2022/12/02 02:04:17;;;;;;;22.80;14.37;;;;;;;;;;5044768;28;20202;-70
2022/12/02 02:06:46;;;;;;;20.37;14.50;;;;;;;;;;5043630;28;20227;-70
2022/12/02 02:09:15;;;;;;;22.37;14.27;;;;;;;;;;5043098;28;20230;-72
2022/12/02 02:11:42;;;;;;;22.63;13.93;;;;;;;;;;5043497;28;20287;-72
2022/12/02 02:14:11;;;;;;;21.80;14.37;;;;;;;;;;5046693;28;20202;-73
2022/12/02 02:16:38;;;;;;;16.73;12.67;;;;;;;;;;5048652;28;20202;-74
2022/12/02 02:19:07;;;;;;;19.53;12.93;;;;;;;;;;5047448;28;20199;-73
2022/12/02 02:21:36;;;;;;;22.37;13.53;;;;;;;;;;5046983;28;20204;-75
2022/12/02 02:24:05;;;;;;;24.20;13.87;;;;;;;;;;5050275;28;20226;-73
2022/12/02 02:26:32;;;;;;;20.80;13.63;;;;;;;;;;5048935;28;20217;-75
2022/12/02 02:29:00;;;;;;;24.23;14.40;;;;;;;;;;5048516;28;20204;-72
2022/12/02 02:31:27;;;;;;;21.37;13.70;;;;;;;;;;5046214;28;20217;-74
2022/12/02 02:33:54;;;;;;;21.57;13.87;;;;;;;;;;5049281;28;20274;-74
2022/12/02 02:36:21;;;;;;;22.23;14.50;;;;;;;;;;5048852;28;20200;-76
2022/12/02 02:38:49;;;;;;;19.60;13.13;;;;;;;;;;5047720;28;20244;-74
2022/12/02 02:41:17;;;;;;;22.30;14.73;;;;;;;;;;5048786;28;20214;-74
2022/12/02 02:43:45;;;;;;;21.63;14.23;;;;;;;;;;5048735;28;20221;-76
2022/12/02 02:46:12;;;;;;;22.67;15.03;;;;;;;;;;5050782;28;20230;-75
2022/12/02 02:48:39;;;;;;;22.03;15.17;;;;;;;;;;5046900;28;20245;-75
2022/12/02 02:51:07;;;;;;;19.73;13.70;;;;;;;;;;5047024;28;20215;-76
2022/12/02 02:53:34;;;;;;;22.60;14.93;;;;;;;;;;5045059;28;20199;-74
2022/12/02 02:56:01;;;;;;;20.27;14.60;;;;;;;;;;5043848;28;20199;-75
2022/12/02 02:58:30;;;;;;;20.17;13.30;;;;;;;;;;5046800;28;20206;-74
2022/12/02 03:00:59;;;;;;;19.97;13.70;;;;;;;;;;5051232;28;20203;-74
2022/12/02 03:03:27;;;;;;;20.47;14.13;;;;;;;;;;5048262;28;20230;-75
2022/12/02 03:05:55;;;;;;;20.80;13.37;;;;;;;;;;5045706;28;20226;-71
2022/12/02 03:08:23;;;;;;;21.80;13.87;;;;;;;;;;5046549;28;20208;-71
2022/12/02 03:10:51;;;;;;;21.17;14.07;;;;;;;;;;5046542;28;20203;-71
2022/12/02 03:13:18;;;;;;;21.17;14.20;;;;;;;;;;5048253;28;20222;-73
2022/12/02 03:15:47;;;;;;;21.17;14.20;;;;;;;;;;5049138;28;20195;-73
2022/12/02 03:18:14;;;;;;;22.10;13.90;;;;;;;;;;5045730;28;20201;-75
2022/12/02 03:20:41;;;;;;;20.30;13.30;;;;;;;;;;5046101;28;20207;-76
2022/12/02 03:23:09;;;;;;;21.77;14.40;;;;;;;;;;5041037;28;20208;-70
2022/12/02 03:25:36;;;;;;;19.43;12.80;;;;;;;;;;5045651;28;20235;-76
2022/12/02 03:28:03;;;;;;;20.83;14.13;;;;;;;;;;5041166;28;20328;-70
2022/12/02 03:30:31;;;;;;;19.47;12.87;;;;;;;;;;5047080;28;20199;-71
2022/12/02 03:32:59;;;;;;;18.50;12.73;;;;;;;;;;5046895;28;20198;-70
2022/12/02 03:35:27;;;;;;;19.13;12.77;;;;;;;;;;5039333;28;20208;-72
2022/12/02 03:37:54;;;;;;;19.33;13.00;;;;;;;;;;5041996;28;20208;-73
2022/12/02 03:40:22;;;;;;;17.87;12.20;;;;;;;;;;5049517;28;20207;-74
2022/12/02 03:42:49;;;;;;;17.67;13.10;;;;;;;;;;5047936;28;20261;-74
2022/12/02 03:45:17;;;;;;;19.00;12.57;;;;;;;;;;5043014;28;20233;-74
2022/12/02 03:47:44;;;;;;;17.70;12.33;;;;;;;;;;5043851;28;20199;-76
2022/12/02 03:50:13;;;;;;;18.73;12.87;;;;;;;;;;5046034;28;20204;-73
2022/12/02 03:52:41;;;;;;;19.37;13.37;;;;;;;;;;5046696;28;20206;-73
2022/12/02 03:55:09;;;;;;;17.77;12.43;;;;;;;;;;5044853;28;20220;-75
2022/12/02 03:57:39;;;;;;;19.73;13.67;;;;;;;;;;5047229;28;20199;-72
2022/12/02 04:00:07;;;;;;;17.10;12.50;;;;;;;;;;5045913;28;20292;-74
2022/12/02 04:02:34;;;;;;;20.93;13.83;;;;;;;;;;5045120;28;20216;-72
2022/12/02 04:05:01;;;;;;;19.43;12.43;;;;;;;;;;5044858;28;20215;-76
2022/12/02 04:07:29;;;;;;;18.47;13.33;;;;;;;;;;5039583;28;20246;-74
2022/12/02 04:09:57;;;;;;;19.33;13.07;;;;;;;;;;5043870;28;20199;-71
2022/12/02 04:12:24;;;;;;;19.60;13.73;;;;;;;;;;5044572;28;20203;-73
2022/12/02 04:14:51;;;;;;;22.13;14.53;;;;;;;;;;5041552;28;20202;-71
2022/12/02 04:17:18;;;;;;;18.57;12.90;;;;;;;;;;5043118;28;20218;-76
2022/12/02 04:19:45;;;;;;;19.23;12.60;;;;;;;;;;5043031;28;20203;-74
2022/12/02 04:22:12;;;;;;;19.43;13.87;;;;;;;;;;5047932;28;20206;-72
2022/12/02 04:24:41;;;;;;;19.67;13.37;;;;;;;;;;5040042;28;20196;-73
2022/12/02 04:27:08;;;;;;;19.70;14.63;;;;;;;;;;5045244;28;20235;-72
2022/12/02 04:29:35;;;;;;;19.77;13.33;;;;;;;;;;5043348;28;20203;-71
2022/12/02 04:32:02;;;;;;;20.70;13.60;;;;;;;;;;5042696;28;20222;-73
2022/12/02 04:34:29;;;;;;;20.03;12.80;;;;;;;;;;5042548;28;20207;-76
2022/12/02 04:36:56;;;;;;;19.77;13.50;;;;;;;;;;5050058;28;20195;-73
2022/12/02 04:39:24;;;;;;;19.17;12.47;;;;;;;;;;5050506;28;20225;-72
2022/12/02 04:41:52;;;;;;;19.97;12.63;;;;;;;;;;5048651;28;20195;-73
2022/12/02 04:44:19;;;;;;;17.60;11.83;;;;;;;;;;5037057;28;20207;-72
2022/12/02 04:46:47;;;;;;;20.13;13.00;;;;;;;;;;5047947;28;20241;-72
2022/12/02 04:49:14;;;;;;;19.87;12.63;;;;;;;;;;5045705;28;20203;-72
2022/12/02 04:51:41;;;;;;;17.40;12.80;;;;;;;;;;5043037;28;20464;-73
2022/12/02 04:54:08;;;;;;;21.77;12.97;;;;;;;;;;5043180;28;20211;-72
2022/12/02 04:56:35;;;;;;;17.57;13.03;;;;;;;;;;5033420;28;20210;-75
2022/12/02 04:59:04;;;;;;;20.07;13.67;;;;;;;;;;5047666;28;20217;-74
2022/12/02 05:01:31;;;;;;;17.77;12.93;;;;;;;;;;5042985;28;20199;-75
2022/12/02 05:03:58;;;;;;;19.77;12.87;;;;;;;;;;5045784;28;20208;-76
2022/12/02 05:06:25;;;;;;;18.13;12.30;;;;;;;;;;5049304;28;20219;-75
2022/12/02 05:08:52;;;;;;;16.77;11.67;;;;;;;;;;5044628;28;20225;-71
2022/12/02 05:11:19;;;;;;;20.50;13.10;;;;;;;;;;5047632;28;20286;-73
2022/12/02 05:13:46;;;;;;;17.00;12.33;;;;;;;;;;5050112;28;20205;-72
2022/12/02 05:16:15;;;;;;;20.73;12.97;;;;;;;;;;5045004;28;20214;-73
2022/12/02 05:18:42;;;;;;;17.40;12.00;;;;;;;;;;5041723;28;20207;-73
2022/12/02 05:21:09;;;;;;;17.63;11.80;;;;;;;;;;5053613;28;20249;-74
2022/12/02 05:23:36;;;;;;;17.10;11.87;;;;;;;;;;5053886;28;20203;-74
2022/12/02 05:26:03;;;;;;;18.47;11.77;;;;;;;;;;5053001;28;20210;-74
2022/12/02 05:28:30;;;;;;;18.53;12.40;;;;;;;;;;5053904;28;20237;-74
2022/12/02 05:30:58;;;;;;;17.07;11.90;;;;;;;;;;5049607;28;20214;-74
2022/12/02 05:33:26;;;;;;;17.30;11.60;;;;;;;;;;5050756;28;20203;-74
2022/12/02 05:35:53;;;;;;;18.27;12.20;;;;;;;;;;5047654;28;20204;-73
2022/12/02 05:38:20;;;;;;;18.40;12.00;;;;;;;;;;5044021;28;20215;-72
2022/12/02 05:40:48;;;;;;;19.13;12.20;;;;;;;;;;5048798;28;20200;-73
2022/12/02 05:43:17;;;;;;;17.97;12.37;;;;;;;;;;5049103;28;20199;-71
2022/12/02 05:45:44;;;;;;;16.73;11.30;;;;;;;;;;5050634;28;20208;-72
2022/12/02 05:48:12;;;;;;;17.13;11.70;;;;;;;;;;5049372;28;20228;-72
2022/12/02 05:50:42;;;;;;;18.07;12.00;;;;;;;;;;5045199;28;20200;-72
2022/12/02 05:53:11;;;;;;;17.97;12.67;;;;;;;;;;5047229;28;20196;-70
2022/12/02 05:55:38;;;;;;;20.10;12.73;;;;;;;;;;5050773;28;20310;-72
2022/12/02 05:58:07;;;;;;;19.37;13.13;;;;;;;;;;5048585;28;20203;-72
2022/12/02 06:00:34;;;;;;;18.57;12.10;;;;;;;;;;5048565;28;20208;-73
2022/12/02 06:03:03;;;;;;;17.73;12.40;;;;;;;;;;5049208;28;20207;-72
2022/12/02 06:05:31;;;;;;;17.50;11.73;;;;;;;;;;5050665;28;20206;-72
2022/12/02 06:08:09;;;;;;;15.30;11.93;;;;;;;;;;5047745;28;20237;-73
2022/12/02 06:10:38;;;;;;;17.87;13.20;;;;;;;;;;5048850;28;20199;-72
2022/12/02 06:13:08;;;;;;;20.27;13.80;;;;;;;;;;5047007;28;20200;-73
2022/12/02 06:15:36;;;;;;;18.77;12.30;;;;;;;;;;5045032;28;20206;-71
2022/12/02 06:18:03;;;;;;;20.00;12.77;;;;;;;;;;5046230;28;20202;-72
2022/12/02 06:20:33;;;;;;;15.73;11.07;;;;;;;;;;5049084;28;20195;-71
2022/12/02 06:23:03;;;;;;;17.63;12.27;;;;;;;;;;5050422;28;20277;-71
2022/12/02 06:25:31;;;;;;;18.37;12.83;;;;;;;;;;5047373;28;20230;-72
2022/12/02 06:28:02;;;;;;;19.20;12.00;;;;;;;;;;5044005;28;20236;-72
2022/12/02 06:30:29;;;;;;;17.43;12.17;;;;;;;;;;5050909;28;20226;-72
2022/12/02 06:32:58;;;;;;;17.77;11.87;;;;;;;;;;5052178;28;20214;-71
2022/12/02 06:35:26;;;;;;;17.43;11.77;;;;;;;;;;5048201;28;20211;-71
2022/12/02 06:37:56;;;;;;;17.23;12.10;;;;;;;;;;5047987;28;20212;-72
2022/12/02 06:40:26;;;;;;;15.97;11.33;;;;;;;;;;5047528;28;20203;-72
2022/12/02 06:42:53;;;;;;;16.60;11.97;;;;;;;;;;5051636;28;20211;-72
2022/12/02 06:45:25;;;;;;;17.80;12.23;;;;;;;;;;5051740;28;20191;-70
2022/12/02 06:48:10;;;;;;;18.57;12.50;;;;;;;;;;5037992;28;20223;-72
2022/12/02 06:50:38;;;;;;;18.60;12.77;;;;;;;;;;5038413;28;20203;-72
2022/12/02 06:53:13;;;;;;;20.90;13.47;;;;;;;;;;5050261;28;22234;-74
2022/12/02 06:55:41;;;;;;;21.80;13.43;;;;;;;;;;5050115;28;20219;-72
2022/12/02 06:58:17;;;;;;;19.63;13.37;;;;;;;;;;5051853;28;20210;-72
2022/12/02 07:00:45;;;;;;;19.30;12.70;;;;;;;;;;5046059;28;20204;-71
2022/12/02 07:03:23;;;;;;;20.50;13.47;;;;;;;;;;5051525;28;20206;-72
2022/12/02 07:05:53;;;;;;;20.03;13.37;;;;;;;;;;5049601;28;20199;-71
2022/12/02 07:08:20;;;;;;;20.27;13.00;;;;;;;;;;5050112;28;20224;-71
2022/12/02 07:10:49;;;;;;;19.33;13.30;;;;;;;;;;5052440;28;20210;-72
2022/12/02 07:13:17;;;;;;;20.43;13.37;;;;;;;;;;5048006;28;20206;-72
2022/12/02 07:15:44;;;;;;;20.00;13.50;;;;;;;;;;5044934;28;20203;-72
2022/12/02 07:18:13;;;;;;;18.70;13.03;;;;;;;;;;5040655;28;20199;-70
2022/12/02 07:20:42;;;;;;;22.90;14.37;;;;;;;;;;5040264;28;20200;-73
2022/12/02 07:23:15;;;;;;;20.50;13.93;;;;;;;;;;5049443;28;20249;-74
2022/12/02 07:25:44;;;;;;;21.37;14.10;;;;;;;;;;5043085;28;20207;-74
2022/12/02 07:28:25;;;;;;;20.70;13.50;;;;;;;;;;5051167;28;20235;-74
2022/12/02 07:30:57;;;;;;;22.83;15.33;;;;;;;;;;5048258;28;20207;-75
2022/12/02 07:33:24;;;;;;;22.77;14.20;;;;;;;;;;5032458;28;20203;-71
2022/12/02 07:35:51;;;;;;;23.57;15.50;;;;;;;;;;5044491;28;20208;-71
2022/12/02 07:38:19;;;;;;;23.97;14.90;;;;;;;;;;5051272;28;20195;-71
2022/12/02 07:40:46;;;;;;;21.37;14.10;;;;;;;;;;5041843;28;20559;-70
2022/12/02 07:43:14;;;;;;;21.17;14.27;;;;;;;;;;5048110;28;20278;-71
2022/12/02 07:45:43;;;;;;;22.40;14.40;;;;;;;;;;5049913;28;20203;-71
2022/12/02 07:48:11;;;;;;;24.90;15.03;;;;;;;;;;5050227;28;20223;-70
2022/12/02 07:50:38;;;;;;;24.33;15.37;;;;;;;;;;5044982;28;20208;-72
2022/12/02 07:53:05;;;;;;;21.30;14.50;;;;;;;;;;5037413;28;20429;-71
2022/12/02 07:55:33;;;;;;;26.27;15.60;;;;;;;;;;5050180;28;20216;-71
2022/12/02 07:58:02;;;;;;;23.57;15.40;;;;;;;;;;5051010;28;20195;-71
2022/12/02 08:00:29;;;;;;;24.73;15.83;;;;;;;;;;5048739;28;20219;-70
2022/12/02 08:02:58;;;;;;;26.37;16.40;;;;;;;;;;5047601;28;20199;-71
2022/12/02 08:05:25;;;;;;;23.87;15.50;;;;;;;;;;5044634;28;20261;-71
2022/12/02 08:07:53;;;;;;;25.70;15.93;;;;;;;;;;5044671;28;20226;-70
2022/12/02 08:10:20;;;;;;;24.23;15.20;;;;;;;;;;5047082;28;20402;-72
2022/12/02 08:12:48;;;;;;;21.77;14.57;;;;;;;;;;5050193;28;20203;-72
2022/12/02 08:15:15;;;;;;;23.53;14.20;;;;;;;;;;5051048;28;20214;-71
2022/12/02 08:17:43;;;;;;;25.23;15.40;;;;;;;;;;5040875;28;20208;-71
2022/12/02 08:20:13;;;;;;;24.07;14.57;;;;;;;;;;5041441;28;20269;-72
2022/12/02 08:22:40;;;;;;;21.00;13.70;;;;;;;;;;5050304;28;20257;-71
2022/12/02 08:25:08;;;;;;;24.07;14.57;;;;;;;;;;5049535;28;20206;-71
2022/12/02 08:27:39;;;;;;;22.00;14.03;;;;;;;;;;5049728;28;20243;-71
2022/12/02 08:30:06;;;;;;;23.57;14.80;;;;;;;;;;5050044;28;20212;-70
2022/12/02 08:32:33;;;;;;;22.20;14.60;;;;;;;;;;5048936;28;20293;-71
2022/12/02 08:35:01;;;;;;;22.80;14.07;;;;;;;;;;5047181;28;20196;-72
2022/12/02 08:37:29;;;;;;;22.03;14.53;;;;;;;;;;5046999;28;20196;-70
2022/12/02 08:39:56;;;;;;;23.37;13.90;;;;;;;;;;5049727;28;20211;-70
2022/12/02 08:42:23;;;;;;;23.37;13.97;;;;;;;;;;5047235;28;20766;-72
2022/12/02 08:44:50;;;;;;;22.87;14.20;;;;;;;;;;5046147;28;20228;-71
2022/12/02 08:47:18;;;;;;;22.53;14.83;;;;;;;;;;5040070;28;20212;-72
2022/12/02 08:49:45;;;;;;;22.83;14.77;;;;;;;;;;5047959;28;20219;-72
2022/12/02 08:52:12;;;;;;;23.03;14.00;;;;;;;;;;5045127;28;20207;-72
2022/12/02 08:54:42;;;;;;;22.40;13.83;;;;;;;;;;5051219;28;20208;-72
2022/12/02 08:57:09;;;;;;;21.73;13.80;;;;;;;;;;5045277;28;20192;-72
2022/12/02 08:59:37;;;;;;;25.93;15.00;;;;;;;;;;5048006;28;20210;-70
2022/12/02 09:02:04;;;;;;;20.67;13.20;;;;;;;;;;5048041;28;20203;-70
2022/12/02 09:04:31;;;;;;;21.37;13.33;;;;;;;;;;5044846;28;20200;-72
2022/12/02 09:06:58;;;;;;;22.60;13.10;;;;;;;;;;5047524;28;20208;-72
2022/12/02 09:09:25;;;;;;;21.33;13.50;;;;;;;;;;5046510;28;20213;-72
2022/12/02 09:11:54;;;;;;;22.87;14.27;;;;;;;;;;5049024;28;20208;-71
2022/12/02 09:14:21;;;;;;;23.17;13.93;;;;;;;;;;5048148;28;20206;-71
2022/12/02 09:16:49;;;;;;;22.57;14.07;;;;;;;;;;5048328;28;20210;-71
2022/12/02 09:19:16;;;;;;;20.93;14.73;;;;;;;;;;5045281;28;20203;-72
2022/12/02 09:21:44;;;;;;;20.83;14.10;;;;;;;;;;5047603;28;20208;-71
2022/12/02 09:24:11;;;;;;;20.47;14.07;;;;;;;;;;5049777;28;20207;-73
2022/12/02 09:26:39;;;;;;;21.80;14.00;;;;;;;;;;5049193;28;20246;-71
2022/12/02 09:29:07;;;;;;;22.47;14.70;;;;;;;;;;5050254;28;20211;-71
2022/12/02 09:31:35;;;;;;;23.60;14.30;;;;;;;;;;5053595;28;20203;-71
2022/12/02 09:34:02;;;;;;;20.97;12.97;;;;;;;;;;5049948;28;20203;-73
2022/12/02 09:36:29;;;;;;;18.50;12.63;;;;;;;;;;5050137;28;20294;-73
2022/12/02 09:38:56;;;;;;;19.57;12.47;;;;;;;;;;5050998;28;20203;-73
2022/12/02 09:41:24;;;;;;;18.83;12.73;;;;;;;;;;5050312;28;20208;-74
2022/12/02 09:43:51;;;;;;;19.33;12.90;;;;;;;;;;5050597;28;20196;-73
2022/12/02 09:46:23;;;;;;;21.20;13.00;;;;;;;;;;5055607;28;20230;-74
2022/12/02 09:48:50;;;;;;;18.30;12.23;;;;;;;;;;5053482;28;20230;-73
2022/12/02 09:51:17;;;;;;;18.87;12.03;;;;;;;;;;5060151;28;20200;-72
2022/12/02 09:53:46;;;;;;;18.57;12.77;;;;;;;;;;5048753;28;20203;-72
2022/12/02 09:56:15;;;;;;;21.10;13.40;;;;;;;;;;5036716;28;20207;-73
2022/12/02 09:58:45;;;;;;;18.80;12.30;;;;;;;;;;5051148;28;20200;-72
2022/12/02 10:01:14;;;;;;;18.47;11.63;;;;;;;;;;5053139;28;20195;-74
2022/12/02 10:03:43;;;;;;;18.73;11.70;;;;;;;;;;5050586;28;20203;-74
2022/12/02 10:06:14;;;;;;;17.90;11.27;;;;;;;;;;5051251;28;20203;-74
2022/12/02 10:08:42;;;;;;;19.37;11.47;;;;;;;;;;5052962;28;20219;-73
2022/12/02 10:11:15;;;;;;;15.43;10.67;;;;;;;;;;5052897;28;20257;-75
2022/12/02 10:13:42;;;;;;;15.60;11.20;;;;;;;;;;5051913;28;20200;-74
2022/12/02 10:16:11;;;;;;;16.13;10.80;;;;;;;;;;5051934;28;20207;-73
2022/12/02 10:18:39;;;;;;;14.73;10.13;;;;;;;;;;5050095;28;20246;-72
2022/12/02 10:21:08;;;;;;;15.73;10.70;;;;;;;;;;5050637;28;20210;-71
2022/12/02 10:23:52;;;;;;;18.80;11.97;;;;;;;;;;5053641;28;20207;-70
2022/12/02 10:26:20;;;;;;;16.30;10.20;;;;;;;;;;5047777;28;20200;-70
2022/12/02 10:28:59;;;;;;;16.70;11.07;;;;;;;;;;5049150;28;20226;-70
2022/12/02 10:31:27;;;;;;;15.10;10.57;;;;;;;;;;5044835;28;20203;-70
2022/12/02 10:33:55;;;;;;;16.50;10.70;;;;;;;;;;5049642;28;20214;-68
2022/12/02 10:36:31;;;;;;;14.20;9.87;;;;;;;;;;5046551;28;20265;-68
2022/12/02 10:39:17;;;;;;;15.93;11.07;;;;;;;;;;5051044;28;20191;-70
2022/12/02 10:41:45;;;;;;;13.73;9.33;;;;;;;;;;5048199;28;20218;-70
2022/12/02 10:44:14;;;;;;;14.67;9.90;;;;;;;;;;5050036;28;20216;-70
2022/12/02 10:46:42;;;;;;;16.67;11.20;;;;;;;;;;5051260;28;20204;-71
2022/12/02 10:49:16;;;;;;;13.93;9.60;;;;;;;;;;5047522;28;20312;-70
2022/12/02 10:51:45;;;;;;;13.80;10.03;;;;;;;;;;5045998;28;20207;-70
2022/12/02 10:54:21;;;;;;;13.20;9.97;;;;;;;;;;5043334;28;20237;-70
2022/12/02 10:56:48;;;;;;;12.70;9.43;;;;;;;;;;5047000;28;20266;-70
2022/12/02 10:59:16;;;;;;;13.33;9.60;;;;;;;;;;5048755;28;20207;-71
2022/12/02 11:01:44;;;;;;;12.90;9.80;;;;;;;;;;5048579;28;20203;-70
2022/12/02 11:04:12;;;;;;;12.40;9.17;;;;;;;;;;5048065;28;20269;-71
2022/12/02 11:06:40;;;;;;;12.43;9.03;;;;;;;;;;5048671;28;20249;-71
2022/12/02 11:09:08;;;;;;;12.20;9.17;;;;;;;;;;5051755;28;20223;-70
2022/12/02 11:11:40;;;;;;;14.77;10.27;;;;;;;;;;5049356;28;20200;-71
2022/12/02 11:14:11;;;;;;;15.47;11.67;;;;;;;;;;5050146;28;20294;-70
2022/12/02 11:17:05;;;;;;;14.87;11.10;;;;;;;;;;5050407;28;20234;-70
2022/12/02 11:19:45;;;;;;;11.53;8.97;;;;;;;;;;5039227;28;20199;-69
2022/12/02 11:22:31;;;;;;;15.57;11.47;;;;;;;;;;5042395;28;20202;-71
2022/12/02 11:24:59;;;;;;;14.67;10.87;;;;;;;;;;5049890;28;20199;-71
2022/12/02 11:27:26;;;;;;;11.83;9.40;;;;;;;;;;5050797;28;20235;-70
2022/12/02 11:30:12;;;;;;;11.87;9.70;;;;;;;;;;5065556;28;20214;-70
2022/12/02 11:32:57;;;;;;;11.30;8.83;;;;;;;;;;5045471;28;20208;-68
2022/12/02 11:35:44;;;;;;;11.43;8.90;;;;;;;;;;5046888;28;20204;-69
2022/12/02 11:38:21;;;;;;;14.07;9.33;;;;;;;;;;5038053;28;20196;-69
2022/12/02 11:41:03;;;;;;;11.00;8.20;;;;;;;;;;5041330;28;20219;-70
2022/12/02 11:43:49;;;;;;;10.87;8.03;;;;;;;;;;5046532;28;20207;-72
2022/12/02 11:46:19;;;;;;;11.23;8.33;;;;;;;;;;5046521;28;20257;-72
2022/12/02 11:48:47;;;;;;;11.90;8.73;;;;;;;;;;5048633;28;20219;-72
2022/12/02 11:51:32;;;;;;;11.17;8.50;;;;;;;;;;5047014;28;20207;-72
2022/12/02 11:54:00;;;;;;;10.20;7.77;;;;;;;;;;5049874;28;20210;-72
2022/12/02 11:56:29;;;;;;;10.50;8.40;;;;;;;;;;5048414;28;20211;-72
2022/12/02 11:58:56;;;;;;;8.77;7.20;;;;;;;;;;5045787;28;20211;-71
2022/12/02 12:01:25;;;;;;;10.13;7.63;;;;;;;;;;5044232;28;20214;-71
2022/12/02 12:03:53;;;;;;;9.00;7.23;;;;;;;;;;5036175;28;20195;-70
2022/12/02 12:06:21;;;;;;;9.03;7.47;;;;;;;;;;5042909;28;20204;-69
2022/12/02 12:08:50;;;;;;;7.67;6.70;;;;;;;;;;5043777;28;20215;-71
2022/12/02 12:11:19;;;;;;;8.07;6.47;;;;;;;;;;5043708;28;20196;-69
2022/12/02 12:14:03;;;;;;;9.87;7.33;;;;;;;;;;5040424;28;20203;-69
2022/12/02 12:16:33;;;;;;;12.03;7.40;;;;;;;;;;5043540;28;20204;-70
2022/12/02 12:19:00;;;;;;;9.50;6.77;;;;;;;;;;5046803;28;20335;-70
2022/12/02 12:21:54;;;;;;;10.23;7.07;;;;;;;;;;5045465;28;20257;-70
2022/12/02 12:24:31;;;;;;;9.53;6.70;;;;;;;;;;5012993;28;20210;-70
2022/12/02 12:27:10;;;;;;;9.43;6.67;;;;;;;;;;5044774;28;20247;-70
2022/12/02 12:29:38;;;;;;;7.53;5.87;;;;;;;;;;5047493;28;20231;-70
2022/12/02 12:32:07;;;;;;;10.50;6.93;;;;;;;;;;5046742;28;20216;-73
2022/12/02 12:34:35;;;;;;;9.40;7.20;;;;;;;;;;5042574;28;20211;-74
2022/12/02 12:37:03;;;;;;;10.27;7.53;;;;;;;;;;5046374;28;20207;-73
2022/12/02 12:39:30;;;;;;;9.87;7.67;;;;;;;;;;5044038;28;20202;-72
2022/12/02 12:41:57;;;;;;;10.77;7.33;;;;;;;;;;5046552;28;20225;-72
2022/12/02 12:44:24;;;;;;;9.73;6.87;;;;;;;;;;5048482;28;20207;-72
2022/12/02 12:46:51;;;;;;;9.07;6.77;;;;;;;;;;5045532;28;20205;-73
2022/12/02 12:49:20;;;;;;;11.83;7.60;;;;;;;;;;5048313;28;20219;-73
2022/12/02 12:51:47;;;;;;;11.27;7.33;;;;;;;;;;5046714;28;20219;-71
2022/12/02 12:54:14;;;;;;;10.47;7.13;;;;;;;;;;5048419;28;20258;-69
2022/12/02 12:56:41;;;;;;;10.03;6.33;;;;;;;;;;5047551;28;20207;-73
2022/12/02 12:59:08;;;;;;;10.53;7.00;;;;;;;;;;5050353;28;20203;-73
2022/12/02 13:01:36;;;;;;;18.47;8.83;;;;;;;;;;5046326;28;20207;-72
2022/12/02 13:04:04;;;;;;;22.57;9.87;;;;;;;;;;5046924;28;20206;-72
2022/12/02 13:06:32;;;;;;;21.07;9.47;;;;;;;;;;5047192;28;20289;-72
2022/12/02 13:09:00;;;;;;;20.10;9.13;;;;;;;;;;5050560;28;20237;-73
2022/12/02 13:11:27;;;;;;;14.70;7.90;;;;;;;;;;5050314;28;20294;-72
2022/12/02 13:13:54;;;;;;;18.73;9.30;;;;;;;;;;5049989;28;20200;-72
2022/12/02 13:16:21;;;;;;;17.93;8.67;;;;;;;;;;5052523;28;20216;-72
2022/12/02 13:18:49;;;;;;;16.10;8.13;;;;;;;;;;5047586;28;20195;-73
2022/12/02 13:21:16;;;;;;;9.77;6.80;;;;;;;;;;5051436;28;20265;-72
2022/12/02 13:23:46;;;;;;;7.07;6.00;;;;;;;;;;5051774;28;20200;-68
2022/12/02 13:26:13;;;;;;;6.07;5.27;;;;;;;;;;5044055;28;20196;-72
2022/12/02 13:28:41;;;;;;;5.80;5.20;;;;;;;;;;5045129;28;20247;-72
2022/12/02 13:31:08;;;;;;;6.13;5.30;;;;;;;;;;5041263;28;20207;-70
2022/12/02 13:33:35;;;;;;;6.73;5.73;;;;;;;;;;5041232;28;20204;-70
2022/12/02 13:36:03;;;;;;;7.23;6.07;;;;;;;;;;5045106;28;20203;-71
2022/12/02 13:38:30;;;;;;;6.47;5.77;;;;;;;;;;5046238;28;20204;-71
2022/12/02 13:40:59;;;;;;;7.57;6.00;;;;;;;;;;5047280;28;20203;-71
2022/12/02 13:43:26;;;;;;;7.80;6.33;;;;;;;;;;5048259;28;20199;-71
2022/12/02 13:45:53;;;;;;;7.70;6.23;;;;;;;;;;5048896;28;20207;-71
2022/12/02 13:48:20;;;;;;;14.17;7.73;;;;;;;;;;5051678;28;20210;-71
2022/12/02 13:50:47;;;;;;;20.37;9.20;;;;;;;;;;5051028;28;20207;-71
2022/12/02 13:53:15;;;;;;;12.43;6.93;;;;;;;;;;5059679;28;20203;-71
2022/12/02 13:55:42;;;;;;;16.13;8.13;;;;;;;;;;5033759;28;20211;-71
2022/12/02 13:58:10;;;;;;;12.93;7.53;;;;;;;;;;5051290;28;20508;-71
2022/12/02 14:00:37;;;;;;;11.00;7.60;;;;;;;;;;5050808;28;20267;-71
2022/12/02 14:03:05;;;;;;;19.30;11.30;;;;;;;;;;5053952;28;20286;-70
2022/12/02 14:05:32;;;;;;;12.17;7.90;;;;;;;;;;5049819;28;20196;-71
2022/12/02 14:07:59;;;;;;;8.83;6.40;;;;;;;;;;5050393;28;20207;-70
2022/12/02 14:10:26;;;;;;;11.17;7.87;;;;;;;;;;5052314;28;20288;-71
2022/12/02 14:12:55;;;;;;;10.60;6.83;;;;;;;;;;5051054;28;20212;-69
2022/12/02 14:15:23;;;;;;;10.43;7.27;;;;;;;;;;5050293;28;20215;-68
2022/12/02 14:17:50;;;;;;;11.23;7.40;;;;;;;;;;5051495;28;20210;-68
2022/12/02 14:20:18;;;;;;;12.07;7.30;;;;;;;;;;5052609;28;20294;-68
2022/12/02 14:22:45;;;;;;;8.07;5.90;;;;;;;;;;5052992;28;20214;-69
2022/12/02 14:25:12;;;;;;;6.50;5.60;;;;;;;;;;5053133;28;20199;-68
2022/12/02 14:27:39;;;;;;;6.73;4.97;;;;;;;;;;5050840;28;20235;-68
2022/12/02 14:30:07;;;;;;;6.00;5.27;;;;;;;;;;5051185;28;20223;-68
2022/12/02 14:32:37;;;;;;;7.13;5.00;;;;;;;;;;5050384;28;20207;-67